Alex Lima

Olheiro-Chefe - Cruzeiro
19 Ago 2027
Quinta-feira
Processo

Personalidade

Adaptabilidade (15) Ambição (6) Controvérsia (4) Lealdade (13) Pressão (16) Profissionalismo (10) Espírito Esportivo (10) Temperamento (9)

Perfil

Estilo de Treinamento Democrático
Licença Nacional B
Determinação 13
Gestão de Pessoas 14
Motivação 10
Disciplina 9
Satisfação no Trabalho
72%
Fadiga
0%
Função Olheiro-Chefe
Salário 100.8K p/s
Contrato 14.03.2028

Desempenho

Comportamento Bom
Eficácia do Treinamento
25%
Desenvolvimento do Jogador
70%
Prevenção de Lesões
55%
Implementação Tática
45%

Eventos Recentes

Participou de uma reunião de recrutamento agora
Recomendou um alvo de transferência agora
Participou de uma reunião de recrutamento agora
Participou de uma reunião de recrutamento 7d atrás
Avaliou um jogador 7d atrás
Avaliou um jogador 7d atrás
Avaliou um jogador 7d atrás
Avaliou um jogador 7d atrás

Monitorando agora

192
Jogador Clube Status Habilidade Confiança Observado Última observação Último voto
Tommaso Berti Cesena Ativo 121 / 135 40% 1 18.08.2027 -
Bandar Yaqoob ES Setif Ativo 135 / 121 40% 1 18.08.2027 -
Romano Floriani Mussolini Avellino Ativo 125 / 145 40% 1 17.08.2027 -
Griffin Yow New England Revolution Ativo 134 / 119 40% 1 17.08.2027 -
Cher Ndour Fiorentina Ativo 149 / 138 40% 2 15.08.2027 -
Isaac Kyereh Liberty Professionals Ativo 128 / 107 40% 1 15.08.2027 -
Assane Diao Lazio Ativo 160 / 164 40% 3 12.08.2027 -
Jayden Addai Como Ativo 141 / 127 40% 1 11.08.2027 -
Stiven Shpendi Empoli Ativo 118 / 125 40% 1 11.08.2027 -
Filippo Distefano Empoli Ativo 123 / 132 40% 1 10.08.2027 -
Cian Ashford Cardiff City Ativo 113 / 118 40% 1 09.08.2027 -
Tom Fellows Southampton Ativo 136 / 131 40% 2 08.08.2027 -
Ethan Williams Peterborough United Ativo 127 / 136 40% 1 08.08.2027 -
Kevin Fulham Ativo 152 / 148 40% 1 04.08.2027 -
Korede Osundina Casa Pia Ativo 121 / 125 40% 1 04.08.2027 -
Stanley Mills Oxford United Ativo 136 / 141 40% 2 03.08.2027 -
Jack McGlynn Stoke City Ativo 131 / 146 40% 1 03.08.2027 -
Toby Collyer West Bromwich Albion Ativo 146 / 127 40% 2 02.08.2027 -
Richard Koné Queens Park Rangers Ativo 130 / 125 40% 1 02.08.2027 -
Yeremy Pino Crystal Palace Ativo 166 / 153 40% 1 19.07.2027 -
George Hall Port Vale Ativo 104 / 111 40% 1 19.07.2027 -
Malick Fofana Sunderland Ativo 161 / 137 40% 1 29.06.2027 -
Luis Vázquez Birmingham Ativo 126 / 139 40% 2 14.06.2027 -
Andrea Pinamonti Lazio Ativo 129 / 141 40% 1 14.06.2027 -
Dudu Vitória Perdido 122 / 121 58% 1 04.06.2027 Aprovar
Jhosefer ABC Ativo 102 / 117 58% 1 02.06.2027 Aprovar
James Trafford Leeds United Ativo 146 / 162 40% 7 30.05.2027 -
Pol Tristán Barnsley Ativo 124 / 105 40% 1 30.05.2027 -
Max O'Leary West Bromwich Albion Ativo 137 / 126 40% 4 29.05.2027 -
Muhammed Şengezer Basaksehir Ativo 138 / 141 40% 1 29.05.2027 -
Grégoire Coudert Burnley Ativo 130 / 130 40% 3 28.05.2027 -
Balázs Tóth Blackburn Rovers Ativo 144 / 115 40% 4 28.05.2027 -
Gabriel Martinelli Brighton Ativo 175 / 167 40% 1 28.05.2027 -
Robin Roefs Sunderland Ativo 132 / 154 40% 9 26.05.2027 -
Kostantis Tzolakis Hull City Ativo 149 / 135 40% 12 26.05.2027 -
Justin Bijlow Genoa Ativo 153 / 153 40% 2 25.05.2027 -
Caoimhin Kelleher Brentford Ativo 142 / 140 40% 9 24.05.2027 -
Egil Selvik Watford Ativo 142 / 128 40% 5 23.05.2027 -
Bilal Bayazıt Kayserispor Ativo 117 / 135 40% 1 23.05.2027 -
Radek Vítek Middlesbrough Ativo 133 / 126 40% 8 22.05.2027 -
Simone Scuffet Pisa Ativo 131 / 126 40% 4 22.05.2027 -
Lorenzo Palmisani Frosinone Ativo 129 / 144 40% 2 21.05.2027 -
Deniz Ertaş Konyaspor Ativo 125 / 122 40% 1 21.05.2027 -
Beau Reus Waasland-Beveren Ativo 123 / 130 40% 2 20.05.2027 -
Edoardo Motta Lazio Ativo 126 / 123 40% 1 17.05.2027 -
Yankuba Minteh Brighton Ativo 162 / 145 40% 1 17.05.2027 -
Fer López Wolverhampton Ativo 131 / 120 40% 1 17.05.2027 -
Daniel Iversen Preston Ativo 132 / 135 40% 5 15.05.2027 -
Murphy Cooper Plymouth Argyle Ativo 131 / 121 40% 1 14.05.2027 -
George Hirst Stoke City Ativo 147 / 125 40% 2 13.05.2027 -
Giacomo Raspadori Atalanta Ativo 152 / 161 40% 1 13.05.2027 Mais informações
Dominic Calvert-Lewin Leeds United Ativo 130 / 130 40% 2 12.05.2027 -
Andre Brooks Sheffield United Ativo 116 / 142 40% 2 11.05.2027 -
Mohamed Belloumi Hull City Ativo 127 / 128 40% 1 11.05.2027 -
Tammy Abraham Aston Villa Ativo 155 / 145 40% 1 11.05.2027 -
Ortwin De Wolf KV Mechelen Ativo 135 / 106 40% 2 08.05.2027 -
Gonçalo Ramos AC Milan Ativo 159 / 162 40% 1 08.05.2027 -
Christos Mouzakitis Hull City Ativo 118 / 141 40% 1 07.05.2027 -
Othmane Maamma Watford Ativo 132 / 124 40% 1 06.05.2027 -
Bento Al-Nassr Ativo 126 / 133 40% 1 04.05.2027 -
Adam Wharton Crystal Palace Ativo 150 / 139 40% 1 02.05.2027 -
Thomas De Bruyne Mouscron Ativo 122 / 123 40% 1 28.04.2027 -
Taty Castellanos West Ham United Ativo 144 / 146 40% 1 28.04.2027 -
Georginio Rutter Brighton Ativo 153 / 148 40% 1 28.04.2027 -
Dango Ouattara Brentford Ativo 149 / 150 40% 1 27.04.2027 -
Hwang Hee-Chan Wolverhampton Ativo 120 / 135 40% 1 27.04.2027 -
Donyell Malen AS Roma Ativo 151 / 157 40% 1 26.04.2027 Mais informações
Juan Soriano Académico de Viseu Ativo 143 / 110 40% 7 24.04.2027 -
Luis Quintero Torreense Ativo 132 / 118 40% 1 24.04.2027 -
Mario Dorgeles Braga Ativo 130 / 134 40% 1 24.04.2027 -
Patrick Sequeira Casa Pia Ativo 123 / 110 40% 5 21.04.2027 -
Tyler Goodrham Oxford United Ativo 113 / 140 40% 1 21.04.2027 -
Louie Barry Sheffield Wednesday Ativo 135 / 117 40% 1 21.04.2027 -
Roméo Beney Famalicao Ativo 102 / 113 40% 1 20.04.2027 -
Dean Henderson Crystal Palace Ativo 148 / 152 40% 5 17.04.2027 -
Jacob Widell Zetterström Derby County Ativo 137 / 132 40% 1 16.04.2027 -
Juninho Pumas UNAM Ativo 127 / 137 40% 2 15.04.2027 -
George Wickens Lincoln City Ativo 104 / 107 40% 3 15.04.2027 -
Yousef Salech Cardiff City Ativo 120 / 127 40% 1 15.04.2027 -
Cezary Miszta Rio Ave Ativo 134 / 144 40% 6 12.04.2027 -
Jamie Cumming Oxford United Ativo 122 / 119 40% 5 10.04.2027 -
Beni Mukendi Vitoria Guimaraes Ativo 115 / 132 40% 1 08.04.2027 -
Rodrigo Ramos Moreirense Ativo 122 / 126 40% 1 08.04.2027 -
Gonçalo Nogueira Vitoria Guimaraes Ativo 119 / 106 40% 1 07.04.2027 -
Armando Broja Burnley Ativo 137 / 119 40% 1 06.04.2027 -
Ollie Tanner Cardiff City Ativo 107 / 118 40% 1 02.04.2027 -
Erick Reyes Toluca Ativo 143 / 154 40% 11 30.03.2027 -
Gianluca Prestianni Benfica Ativo 138 / 145 40% 2 30.03.2027 -
Hugo Cuypers Monterrey Ativo 123 / 122 40% 1 30.03.2027 -
Adnan Courtois KV Oostende Ativo 143 / 118 40% 1 30.03.2027 -
Mandla Erasmus SuperSport United Ativo 124 / 106 40% 1 30.03.2027 -
Pablo Monroy Pumas UNAM Ativo 110 / 129 40% 1 29.03.2027 -
Mads Hermansen West Ham United Ativo 153 / 135 40% 3 27.03.2027 -
Carlos Moreno Pachuca Ativo 138 / 140 40% 3 23.03.2027 -
Antonio Gomis Vizela Ativo 138 / 133 40% 1 23.03.2027 -
Lukas Jensen Millwall Ativo 121 / 119 40% 2 21.03.2027 -
Oli McBurnie Hull City Ativo 138 / 129 40% 3 19.03.2027 -
Hugo Souza Corinthians Ativo 145 / 142 40% 5 18.03.2027 -
Petar Musa Adana Demirspor Ativo 131 / 139 40% 1 14.03.2027 -
Moussa Dembélé CR Belouizdad Ativo 128 / 122 40% 1 14.03.2027 -
Ignacio de Arruabarrena Arouca Ativo 144 / 122 40% 11 11.03.2027 -
Raúl Rangel Sporting CP Ativo 146 / 144 40% 5 11.03.2027 -
Adriel Torreense Ativo 108 / 132 40% 2 10.03.2027 -
Arijanet Murić Sassuolo Ativo 128 / 144 40% 1 06.03.2027 -
Lazar Carević Famalicao Ativo 132 / 120 40% 6 04.03.2027 -
Michael Cooper Sheffield United Ativo 120 / 140 40% 2 02.03.2027 -
Dodi Lukébakio Benfica Ativo 156 / 144 40% 3 01.03.2027 -
Ivan Toney Al-Ahli Ativo 156 / 147 40% 1 01.03.2027 -
Zeki Amdouni Burnley Ativo 126 / 135 40% 2 28.02.2027 -
Callum O'Hare Sheffield United Ativo 120 / 144 40% 1 26.02.2027 -
Stav Toriel Hapoel Tel Aviv Ativo 136 / 133 40% 1 25.02.2027 -
André Silva Tondela Ativo 116 / 124 40% 2 24.02.2027 -
Iker Benito Queretaro Ativo 117 / 130 40% 2 23.02.2027 -
Rodrigo Pinheiro Famalicao Ativo 115 / 118 40% 1 23.02.2027 -
Yusuke Matsuo Esteghlal Ativo 117 / 124 40% 1 22.02.2027 -
Domagoj Drožđek Tractor Ativo 118 / 115 40% 1 22.02.2027 -
Fotis Ioannidis Rio Ave Ativo 134 / 144 40% 3 19.02.2027 -
Lewis Morgan SuperSport United Ativo 123 / 133 40% 1 18.02.2027 -
Iván Fresneda Sporting CP Ativo 147 / 127 40% 1 18.02.2027 -
Nicolas Schmid Portsmouth Ativo 108 / 132 40% 3 16.02.2027 -
Vitor Eudes Fluminense Ativo 128 / 118 40% 1 14.02.2027 -
Ilay Camara Anderlecht Ativo 116 / 125 40% 1 13.02.2027 -
Ilyas Ansah Hull City Ativo 122 / 120 40% 1 09.02.2027 -
Hany Mukhtar Spezia Ativo 153 / 119 40% 1 09.02.2027 -
Sipho Chaine Orlando Pirates Ativo 135 / 103 40% 1 08.02.2027 -
Kerem Aktürkoğlu Fenerbahce Ativo 158 / 124 40% 1 07.02.2027 -
Lucas Arcanjo Vitória Ativo 129 / 122 40% 2 06.02.2027 -
Yehvann Diouf OGC Nice Ativo 134 / 127 40% 1 04.02.2027 -
Taichi Fukui Arouca Ativo 110 / 143 40% 1 03.02.2027 -
John Kennedy Fluminense Ativo 116 / 134 58% 1 28.12.2026 Aprovar
Alessandro Buongiorno Sassuolo Ativo 169 / 154 40% 1 30.11.2026 -
Christian Krasnodar Ativo 142 / 144 40% 1 30.11.2026 -
Nicolás Sumavil Platense Ativo 117 / 114 40% 1 27.11.2026 -
Lucas Piton Vasco da Gama Ativo 140 / 140 40% 1 25.11.2026 -
Anel Ahmedhodžić Burnley Ativo 129 / 132 40% 1 25.11.2026 -
André Moreira Oliveirense Ativo 122 / 98 40% 1 22.11.2026 -
Carlos Vinícius Grêmio Ativo 124 / 130 40% 1 19.11.2026 -
Héctor Hernández Gil Vicente Ativo 134 / 135 40% 1 19.11.2026 -
Neymar Santos Ativo 154 / 152 40% 2 17.11.2026 -
Geovanni Banguera Deportivo Pasto Ativo 112 / 117 40% 2 13.11.2026 -
Ezequiel Centurión River Plate Ativo 127 / 128 40% 1 11.11.2026 -
Bernardo Fontes Braga Ativo 120 / 121 40% 1 10.11.2026 -
Víctor Cabezas Union Magdalena Ativo 114 / 129 40% 1 02.11.2026 -
Matěj Kovář PSV Ativo 137 / 151 40% 1 02.11.2026 Mais informações
André Ferreira Moreirense Ativo 104 / 110 40% 2 31.10.2026 -
Chuchu Ramírez Nacional Ativo 117 / 111 40% 1 31.10.2026 -
Gustaf Lagerbielke Braga Ativo 149 / 118 40% 1 31.10.2026 -
Aníbal Moreno River Plate Ativo 139 / 126 40% 1 31.10.2026 -
Alfonso Trezza Arouca Ativo 135 / 128 40% 1 27.10.2026 -
Luis Ingolotti Atlético Tucumán Ativo 122 / 116 40% 1 25.10.2026 -
Samu Aghehowa AS Roma Ativo 157 / 149 40% 2 24.10.2026 -
Eduardo Sasha Bragantino Ativo 129 / 133 40% 1 24.10.2026 -
Facundo Cambeses Racing Club Ativo 132 / 118 40% 1 23.10.2026 -
Felipe Parra Envigado Ativo 113 / 114 40% 3 19.10.2026 -
José Manuel López Palmeiras Ativo 125 / 142 40% 1 19.10.2026 -
Christian Walton Ipswich Town Ativo 144 / 125 40% 2 18.10.2026 -
Gabriel Jesus Barcelona Ativo 139 / 140 40% 1 16.10.2026 -
Gabriel Veron Porto Ativo 129 / 128 40% 1 15.10.2026 -
Gabriel Batista Botafogo Ativo 137 / 128 40% 3 10.10.2026 -
Drake Callender Minnesota United FC Ativo 127 / 124 40% 1 08.10.2026 -
Jean America de Cali Ativo 120 / 132 40% 3 06.10.2026 -
Matheus Mendes Alverca Ativo 105 / 129 40% 2 04.10.2026 -
Carlos Miguel Palmeiras Ativo 137 / 140 40% 4 02.10.2026 -
Antoine Griezmann Orlando City Ativo 158 / 154 40% 2 30.09.2026 -
Inti López River Plate Ativo 92 / 90 40% 1 28.09.2026 -
Patrick Schulte Columbus Crew Ativo 120 / 111 40% 1 25.09.2026 -
Jalen Blesa Rio Ave Ativo 101 / 132 40% 1 25.09.2026 -
Gustavo Silva Vitoria Guimaraes Ativo 112 / 106 40% 1 25.09.2026 -
Youssoufa Moukoko FC Copenhagen Ativo 135 / 131 40% 1 23.09.2026 -
Vinícius Lopes Santa Clara Ativo 126 / 129 40% 1 21.09.2026 -
Jonás Luna Santa Clara Ativo 117 / 115 40% 1 19.09.2026 -
Jovan Milošević Braga Ativo 132 / 104 40% 1 16.09.2026 -
Andrés Gudiño Cruz Azul Ativo 121 / 114 40% 1 10.09.2026 -
Léo Jacó Santa Clara Ativo 92 / 118 40% 1 10.09.2026 -
Markus Jensen Nacional Ativo 119 / 105 40% 1 10.09.2026 -
Paulinho Palmeiras Ativo 147 / 130 40% 2 07.09.2026 -
Roberto Fernández Braga Ativo 126 / 142 40% 1 07.09.2026 -
Roberto Ramírez Godoy Cruz Ativo 128 / 122 40% 1 05.09.2026 -
Rafa Benfica Ativo 152 / 137 40% 1 02.09.2026 -
Arnel Jakupović Vitoria Guimaraes Ativo 108 / 99 40% 1 01.09.2026 -
Diego Rossi Monterrey Ativo 127 / 138 40% 1 01.09.2026 -
Mohammed Bouldini Académico de Viseu Ativo 130 / 128 40% 1 30.08.2026 -
Nicolás Campisi Sportivo Luqueno Ativo 129 / 115 40% 1 27.08.2026 -
Matt Freese New York City Ativo 134 / 118 40% 1 22.08.2026 -
Manuel Roffo Cerro Porteno Ativo 134 / 116 40% 1 15.08.2026 -
Oliver Dovin Coventry City Ativo 111 / 112 40% 1 14.08.2026 -
Heung-Min Son Los Angeles Football Club Ativo 150 / 152 40% 1 12.08.2026 -
Yoane Wissa Newcastle United Ativo 155 / 143 40% 1 12.08.2026 -
Ronaldo Bahia Ativo 127 / 123 40% 1 04.08.2026 -
Unai Simón Athletic Bilbao Ativo 152 / 176 40% 1 04.08.2026 -
Augusto Batalla Rayo Vallecano Ativo 145 / 153 40% 1 03.08.2026 -
Andrew Flamengo Ativo 120 / 134 40% 1 01.08.2026 -